createdAt,value
2018-03-28T00:01:47.001Z,5.30
2018-03-28T00:04:15.308Z,5.30
2018-03-28T00:06:43.589Z,5.30
2018-03-28T00:09:12.726Z,5.40
2018-03-28T00:11:41.148Z,5.30
2018-03-28T00:14:09.436Z,5.30
2018-03-28T00:16:37.732Z,5.30
2018-03-28T00:19:05.987Z,5.30
2018-03-28T00:21:34.267Z,5.40
2018-03-28T00:24:02.686Z,5.30
2018-03-28T00:26:32.071Z,5.40
2018-03-28T00:29:00.373Z,5.30
2018-03-28T00:31:28.644Z,5.40
2018-03-28T00:33:58.492Z,5.40
2018-03-28T00:36:26.760Z,5.40
2018-03-28T00:38:55.793Z,5.40
2018-03-28T00:41:24.065Z,5.40
2018-03-28T00:43:52.374Z,5.40
2018-03-28T00:46:20.650Z,5.40
2018-03-28T00:48:49.083Z,5.40
2018-03-28T00:51:29.304Z,5.40
2018-03-28T00:53:57.600Z,5.40
2018-03-28T00:56:27.000Z,5.40
2018-03-28T00:58:56.033Z,5.50
2018-03-28T01:01:24.310Z,5.50
2018-03-28T01:03:52.582Z,5.50
2018-03-28T01:06:20.840Z,5.50
2018-03-28T01:08:49.130Z,5.50
2018-03-28T01:11:17.383Z,5.50
2018-03-28T01:13:45.656Z,5.50
2018-03-28T01:16:14.078Z,5.50
2018-03-28T01:18:42.357Z,5.60
2018-03-28T01:21:10.633Z,5.50
2018-03-28T01:23:38.910Z,5.60
2018-03-28T01:26:07.170Z,5.50
2018-03-28T01:28:35.450Z,5.60
2018-03-28T01:31:03.732Z,5.60
2018-03-28T01:33:32.009Z,5.60
2018-03-28T01:36:00.292Z,5.60
2018-03-28T01:38:28.553Z,5.50
2018-03-28T01:40:56.846Z,5.60
2018-03-28T01:43:25.104Z,5.60
2018-03-28T01:45:53.385Z,5.60
2018-03-28T01:48:21.656Z,5.60
2018-03-28T01:50:49.911Z,5.60
2018-03-28T01:53:18.183Z,5.60
2018-03-28T01:55:46.464Z,5.60
2018-03-28T01:58:14.756Z,5.60
2018-03-28T02:00:43.032Z,5.70
2018-03-28T02:03:11.287Z,5.70
2018-03-28T02:05:39.568Z,5.70
2018-03-28T02:08:07.841Z,5.60
2018-03-28T02:10:36.119Z,5.70
2018-03-28T02:13:04.377Z,5.60
2018-03-28T02:15:33.420Z,5.70
2018-03-28T02:18:01.689Z,5.70
2018-03-28T02:20:29.964Z,5.70
2018-03-28T02:22:58.225Z,5.70
2018-03-28T02:25:26.485Z,5.70
2018-03-28T02:27:54.777Z,5.70
2018-03-28T02:30:23.052Z,5.70
2018-03-28T02:32:51.338Z,5.70
2018-03-28T02:35:19.602Z,5.70
2018-03-28T02:37:47.872Z,5.70
2018-03-28T02:40:16.141Z,5.70
2018-03-28T02:42:44.410Z,5.70
2018-03-28T02:45:13.453Z,5.70
2018-03-28T02:47:41.724Z,5.70
2018-03-28T02:50:09.992Z,5.70
2018-03-28T02:52:38.277Z,5.70
2018-03-28T02:55:06.561Z,5.70
2018-03-28T02:57:34.843Z,5.80
2018-03-28T03:00:03.122Z,5.80
2018-03-28T03:02:31.380Z,5.80
2018-03-28T03:04:59.683Z,5.80
2018-03-28T03:07:28.706Z,5.80
2018-03-28T03:09:57.729Z,5.70
2018-03-28T03:12:25.991Z,5.70
2018-03-28T03:14:54.282Z,5.70
2018-03-28T03:17:22.541Z,5.80
2018-03-28T03:19:50.797Z,5.80
2018-03-28T03:22:19.836Z,5.80
2018-03-28T03:24:48.101Z,5.80
2018-03-28T03:27:16.368Z,5.80
2018-03-28T03:29:44.645Z,5.80
2018-03-28T03:32:12.935Z,5.80
2018-03-28T03:34:41.224Z,5.80
2018-03-28T03:37:09.530Z,5.80
2018-03-28T03:39:37.784Z,5.80
2018-03-28T03:42:06.085Z,5.80
2018-03-28T03:44:35.118Z,5.80
2018-03-28T03:47:03.386Z,5.80
2018-03-28T03:49:31.650Z,5.80
2018-03-28T03:52:00.693Z,5.80
2018-03-28T03:54:28.966Z,5.80
2018-03-28T03:56:57.263Z,5.80
2018-03-28T03:59:25.526Z,5.80
2018-03-28T04:01:53.794Z,5.90
2018-03-28T04:04:22.079Z,5.80
2018-03-28T04:06:50.365Z,5.80
2018-03-28T04:09:18.626Z,5.90
2018-03-28T04:11:46.895Z,5.90
2018-03-28T04:14:15.161Z,5.90
2018-03-28T04:16:43.435Z,5.90
2018-03-28T04:19:11.687Z,5.90
2018-03-28T04:21:40.716Z,5.90
2018-03-28T04:24:08.999Z,5.90
2018-03-28T04:26:37.264Z,5.90
2018-03-28T04:29:05.536Z,5.90
2018-03-28T04:31:33.794Z,5.90
2018-03-28T04:34:02.079Z,6.00
2018-03-28T04:36:30.343Z,6.00
2018-03-28T04:38:58.652Z,6.00
2018-03-28T04:41:26.927Z,6.00
2018-03-28T04:43:55.203Z,6.00
2018-03-28T04:46:23.474Z,6.00
2018-03-28T04:48:51.734Z,6.00
2018-03-28T04:51:20.006Z,6.00
2018-03-28T04:53:48.274Z,6.10
2018-03-28T04:56:17.316Z,6.00
2018-03-28T04:58:45.591Z,6.10
2018-03-28T05:01:13.870Z,6.00
2018-03-28T05:03:42.170Z,6.10
2018-03-28T05:06:10.441Z,6.10
2018-03-28T05:08:38.756Z,6.10
2018-03-28T05:11:07.021Z,6.10
2018-03-28T05:13:36.069Z,6.10
2018-03-28T05:16:04.419Z,6.00
2018-03-28T05:18:32.698Z,6.10
2018-03-28T05:21:01.692Z,6.10
2018-03-28T05:23:29.981Z,6.10
2018-03-28T05:25:58.236Z,6.10
2018-03-28T05:28:26.519Z,6.10
2018-03-28T05:30:54.796Z,6.10
2018-03-28T05:33:23.082Z,6.20
2018-03-28T05:35:51.755Z,6.20
2018-03-28T05:38:20.032Z,6.20
2018-03-28T05:40:48.291Z,6.20
2018-03-28T05:43:16.570Z,6.30
2018-03-28T05:45:44.847Z,6.20
2018-03-28T05:48:13.162Z,6.30
2018-03-28T05:50:41.427Z,6.30
2018-03-28T05:53:09.767Z,6.30
2018-03-28T05:55:38.048Z,6.30
2018-03-28T05:58:07.081Z,6.30
2018-03-28T06:00:35.346Z,6.30
2018-03-28T06:03:03.602Z,6.40
2018-03-28T06:05:31.887Z,6.40
2018-03-28T06:08:00.154Z,6.40
2018-03-28T06:10:28.433Z,6.40
2018-03-28T06:12:56.773Z,6.40
2018-03-28T06:15:25.049Z,6.50
2018-03-28T06:17:53.359Z,6.50
2018-03-28T06:20:21.642Z,6.50
2018-03-28T06:22:49.919Z,6.50
2018-03-28T06:25:18.179Z,6.50
2018-03-28T06:27:46.492Z,6.50
2018-03-28T06:30:14.748Z,6.50
2018-03-28T06:32:43.075Z,6.60
2018-03-28T06:35:11.345Z,6.60
2018-03-28T06:37:39.613Z,6.60
2018-03-28T06:40:07.883Z,6.60
2018-03-28T06:42:36.160Z,6.70
2018-03-28T06:45:04.601Z,6.60
2018-03-28T06:47:33.639Z,6.70
2018-03-28T06:50:01.920Z,6.60
2018-03-28T06:52:30.451Z,6.70
2018-03-28T06:54:58.768Z,6.70
2018-03-28T06:57:27.157Z,6.80
2018-03-28T06:59:55.442Z,6.80
2018-03-28T07:02:23.714Z,6.90
2018-03-28T07:04:51.980Z,7.00
2018-03-28T07:07:20.462Z,7.00
2018-03-28T07:09:49.530Z,7.00
2018-03-28T07:12:17.818Z,7.10
2018-03-28T07:14:46.094Z,7.10
2018-03-28T07:17:14.367Z,7.10
2018-03-28T07:19:42.629Z,7.10
2018-03-28T07:22:10.936Z,7.20
2018-03-28T07:24:39.194Z,7.30
2018-03-28T07:27:07.476Z,7.30
2018-03-28T07:29:35.800Z,7.40
2018-03-28T07:32:04.828Z,7.60
2018-03-28T07:34:33.087Z,7.50
2018-03-28T07:37:02.412Z,7.60
2018-03-28T07:39:30.712Z,7.60
2018-03-28T07:41:58.964Z,7.70
2018-03-28T07:44:27.661Z,7.80
2018-03-28T07:46:55.925Z,7.80
2018-03-28T07:49:24.244Z,7.90
2018-03-28T07:51:52.542Z,8.00
2018-03-28T07:54:21.580Z,8.20
2018-03-28T07:56:49.907Z,8.20
2018-03-28T07:59:18.365Z,8.30
2018-03-28T08:01:46.649Z,8.20
2018-03-28T08:04:14.943Z,8.20
2018-03-28T08:06:43.228Z,8.30
2018-03-28T08:09:12.274Z,8.30
2018-03-28T08:11:40.584Z,8.40
2018-03-28T08:14:08.979Z,8.30
2018-03-28T08:16:38.009Z,8.50
2018-03-28T08:19:06.289Z,8.50
2018-03-28T08:21:34.639Z,8.60
2018-03-28T08:24:03.676Z,8.60
2018-03-28T08:26:31.935Z,8.60
2018-03-28T08:29:00.199Z,8.80
2018-03-28T08:31:28.478Z,8.90
2018-03-28T08:33:56.755Z,9.00
2018-03-28T08:36:25.057Z,9.20
2018-03-28T08:38:53.333Z,9.20
2018-03-28T08:41:21.712Z,9.30
2018-03-28T08:43:50.026Z,9.20
2018-03-28T08:46:18.289Z,9.30
2018-03-28T08:48:46.575Z,9.50
2018-03-28T08:51:14.896Z,9.60
2018-03-28T08:53:43.169Z,9.80
2018-03-28T08:56:11.472Z,9.90
2018-03-28T08:58:39.746Z,10.20
2018-03-28T09:01:08.045Z,10.00
2018-03-28T09:03:37.075Z,10.60
2018-03-28T09:06:06.128Z,10.60
2018-03-28T09:08:34.413Z,10.60
2018-03-28T09:11:02.695Z,10.10
2018-03-28T09:13:30.992Z,10.20
2018-03-28T09:16:00.050Z,10.10
2018-03-28T09:18:28.325Z,10.10
2018-03-28T09:20:56.613Z,10.20
2018-03-28T09:23:24.877Z,10.20
2018-03-28T09:25:53.246Z,10.10
2018-03-28T09:28:22.223Z,10.20
2018-03-28T09:30:50.530Z,10.10
2018-03-28T09:33:18.895Z,10.20
2018-03-28T09:35:47.175Z,10.20
2018-03-28T09:38:15.438Z,10.40
2018-03-28T09:40:43.736Z,10.60
2018-03-28T09:43:12.011Z,10.60
2018-03-28T09:45:40.289Z,10.60
2018-03-28T09:48:08.587Z,10.90
2018-03-28T09:50:36.929Z,10.90
2018-03-28T09:53:05.749Z,10.90
2018-03-28T09:55:34.776Z,11.00
2018-03-28T09:58:03.051Z,11.00
2018-03-28T10:00:31.385Z,10.90
2018-03-28T10:03:05.247Z,10.90
2018-03-28T10:05:40.271Z,10.90
2018-03-28T10:08:08.569Z,10.80
2018-03-28T10:10:37.633Z,10.80
2018-03-28T10:13:06.791Z,10.50
2018-03-28T10:15:35.063Z,10.50
2018-03-28T10:18:03.386Z,10.70
2018-03-28T10:20:32.427Z,10.80
2018-03-28T10:23:00.681Z,10.90
2018-03-28T10:25:29.021Z,10.70
2018-03-28T10:27:57.396Z,10.60
2018-03-28T10:30:26.427Z,10.30
2018-03-28T10:32:55.647Z,10.30
2018-03-28T10:35:23.922Z,10.50
2018-03-28T10:37:52.184Z,10.30
2018-03-28T10:40:20.472Z,10.20
2018-03-28T10:42:48.837Z,10.10
2018-03-28T10:45:17.133Z,10.20
2018-03-28T10:47:45.406Z,10.20
2018-03-28T10:50:13.760Z,10.00
2018-03-28T10:52:42.761Z,10.00
2018-03-28T10:55:11.162Z,10.20
2018-03-28T10:57:39.436Z,10.20
2018-03-28T11:00:07.750Z,10.30
2018-03-28T11:02:36.813Z,10.10
2018-03-28T11:05:05.098Z,10.20
2018-03-28T11:07:33.368Z,10.20
2018-03-28T11:10:01.744Z,10.30
2018-03-28T11:12:30.831Z,10.10
2018-03-28T11:14:59.107Z,10.10
2018-03-28T11:17:27.376Z,9.90
2018-03-28T11:19:55.678Z,9.80
2018-03-28T11:22:23.998Z,9.80
2018-03-28T11:24:52.416Z,9.60
2018-03-28T11:27:20.795Z,9.50
2018-03-28T11:29:49.173Z,9.40
2018-03-28T11:32:17.714Z,9.20
2018-03-28T11:34:45.980Z,9.10
2018-03-28T11:37:15.063Z,8.90
2018-03-28T11:39:43.420Z,8.90
2018-03-28T11:42:11.752Z,8.90
2018-03-28T11:44:40.064Z,8.90
2018-03-28T11:47:09.999Z,9.00
2018-03-28T11:49:38.337Z,8.90
2018-03-28T11:52:06.612Z,8.90
2018-03-28T11:54:34.892Z,9.00
2018-03-28T11:57:03.156Z,9.20
2018-03-28T11:59:31.419Z,9.30
2018-03-28T12:01:59.719Z,9.60
2018-03-28T12:04:28.036Z,9.80
2018-03-28T12:06:56.411Z,9.90
2018-03-28T12:09:24.706Z,10.00
2018-03-28T12:11:53.740Z,10.40
2018-03-28T12:14:22.068Z,10.40
2018-03-28T12:16:50.330Z,10.30
2018-03-28T12:19:19.208Z,10.30
2018-03-28T12:21:47.475Z,10.40
2018-03-28T12:24:16.673Z,10.40
2018-03-28T12:26:44.966Z,10.40
2018-03-28T12:29:14.137Z,10.20
2018-03-28T12:31:42.449Z,10.20
2018-03-28T12:34:10.804Z,10.20
2018-03-28T12:36:39.066Z,10.40
2018-03-28T12:39:07.326Z,10.50
2018-03-28T12:41:35.586Z,10.40
2018-03-28T12:44:04.624Z,10.20
2018-03-28T12:46:32.907Z,10.20
2018-03-28T12:49:01.288Z,10.20
2018-03-28T12:51:29.558Z,10.20
2018-03-28T12:53:57.864Z,10.20
2018-03-28T12:56:26.185Z,10.10
2018-03-28T12:58:55.452Z,10.00
2018-03-28T13:01:24.507Z,9.90
2018-03-28T13:03:52.796Z,10.00
2018-03-28T13:06:21.062Z,9.90
2018-03-28T13:08:49.453Z,9.90
2018-03-28T13:11:17.714Z,9.60
2018-03-28T13:13:46.040Z,9.60
2018-03-28T13:16:15.061Z,9.60
2018-03-28T13:18:43.329Z,9.60
2018-03-28T13:21:11.586Z,9.50
2018-03-28T13:23:40.623Z,9.60
2018-03-28T13:26:08.903Z,9.60
2018-03-28T13:28:37.198Z,9.70
2018-03-28T13:31:05.487Z,9.60
2018-03-28T13:33:33.755Z,9.80
2018-03-28T13:36:02.119Z,9.90
2018-03-28T13:38:30.384Z,10.00
2018-03-28T13:40:58.643Z,9.80
2018-03-28T13:43:26.958Z,9.80
2018-03-28T13:45:55.230Z,9.70
2018-03-28T13:48:23.499Z,9.60
2018-03-28T13:50:51.766Z,9.50
2018-03-28T13:53:20.162Z,9.40
2018-03-28T13:55:48.445Z,9.50
2018-03-28T13:58:16.739Z,9.40
2018-03-28T14:00:45.770Z,9.40
2018-03-28T14:03:14.069Z,9.30
2018-03-28T14:05:42.349Z,9.30
2018-03-28T14:08:11.035Z,9.30
2018-03-28T14:10:40.336Z,9.30
2018-03-28T14:13:08.607Z,9.20
2018-03-28T14:15:36.857Z,9.20
2018-03-28T14:18:05.160Z,9.10
2018-03-28T14:20:33.428Z,9.00
2018-03-28T14:23:01.719Z,8.90
2018-03-28T14:25:30.210Z,8.80
2018-03-28T14:27:58.506Z,8.70
2018-03-28T14:30:27.567Z,8.60
2018-03-28T14:32:55.844Z,8.50
2018-03-28T14:35:24.134Z,8.50
2018-03-28T14:37:52.498Z,8.40
2018-03-28T14:40:20.826Z,8.40
2018-03-28T14:42:54.587Z,8.20
2018-03-28T14:45:18.933Z,8.20
2018-03-28T14:47:47.291Z,8.20
2018-03-28T14:50:16.345Z,8.10
2018-03-28T14:52:44.715Z,8.10
2018-03-28T14:55:12.975Z,8.00
2018-03-28T14:57:41.260Z,8.00
2018-03-28T15:00:09.563Z,8.00
2018-03-28T15:02:37.869Z,7.90
2018-03-28T15:05:07.003Z,7.90
2018-03-28T15:07:35.323Z,7.90
2018-03-28T15:10:04.397Z,7.90
2018-03-28T15:12:32.679Z,7.80
2018-03-28T15:15:01.161Z,7.80
2018-03-28T15:17:29.461Z,7.70
2018-03-28T15:19:58.488Z,7.70
2018-03-28T15:22:26.787Z,7.60
2018-03-28T15:24:55.076Z,7.70
2018-03-28T15:27:23.446Z,7.70
2018-03-28T15:29:51.706Z,7.70
2018-03-28T15:32:19.975Z,7.60
2018-03-28T15:34:49.133Z,7.60
2018-03-28T15:37:18.403Z,7.50
2018-03-28T15:39:46.682Z,7.50
2018-03-28T15:42:14.970Z,7.50
2018-03-28T15:44:43.298Z,7.50
2018-03-28T15:47:11.613Z,7.50
2018-03-28T15:49:39.908Z,7.50
2018-03-28T15:52:09.020Z,7.50
2018-03-28T15:54:37.302Z,7.50
2018-03-28T15:57:06.417Z,7.40
2018-03-28T15:59:34.719Z,7.50
2018-03-28T16:02:03.024Z,7.50
2018-03-28T16:04:31.304Z,7.60
2018-03-28T16:06:59.606Z,7.40
2018-03-28T16:09:29.027Z,7.40
2018-03-28T16:11:57.333Z,7.40
2018-03-28T16:14:25.659Z,7.40
2018-03-28T16:16:55.898Z,7.30
2018-03-28T16:19:24.460Z,7.30
2018-03-28T16:21:53.613Z,7.50
2018-03-28T16:24:21.969Z,7.40
2018-03-28T16:26:50.240Z,7.50
2018-03-28T16:29:18.512Z,7.30
2018-03-28T16:31:46.770Z,7.30
2018-03-28T16:34:15.828Z,7.40
2018-03-28T16:36:44.165Z,7.40
2018-03-28T16:39:12.440Z,7.40
2018-03-28T16:41:40.750Z,7.30
2018-03-28T16:44:08.998Z,7.40
2018-03-28T16:46:37.308Z,7.40
2018-03-28T16:49:05.553Z,7.40
2018-03-28T16:51:33.834Z,7.40
2018-03-28T16:54:02.113Z,7.50
2018-03-28T16:56:30.434Z,7.60
2018-03-28T16:58:58.722Z,7.50
2018-03-28T17:01:26.998Z,7.50
2018-03-28T17:03:56.024Z,7.50
2018-03-28T17:06:24.304Z,7.40
2018-03-28T17:08:52.580Z,7.40
2018-03-28T17:11:20.861Z,7.40
2018-03-28T17:13:49.120Z,7.40
2018-03-28T17:16:17.397Z,7.40
2018-03-28T17:18:45.654Z,7.40
2018-03-28T17:21:14.677Z,7.40
2018-03-28T17:23:43.016Z,7.40
2018-03-28T17:26:11.335Z,7.50
2018-03-28T17:28:39.614Z,7.40
2018-03-28T17:31:07.925Z,7.40
2018-03-28T17:33:36.200Z,7.30
2018-03-28T17:36:04.798Z,7.40
2018-03-28T17:38:33.160Z,7.40
2018-03-28T17:41:01.442Z,7.40
2018-03-28T17:43:29.779Z,7.30
2018-03-28T17:45:58.058Z,7.30
2018-03-28T17:48:26.325Z,7.20
2018-03-28T17:50:54.612Z,7.40
2018-03-28T17:53:22.869Z,7.30
2018-03-28T17:55:51.157Z,7.30
2018-03-28T17:58:20.187Z,7.30
2018-03-28T18:00:48.475Z,7.30
2018-03-28T18:03:16.755Z,7.30
2018-03-28T18:05:45.811Z,7.40
2018-03-28T18:08:14.128Z,7.40
2018-03-28T18:10:42.379Z,7.40
2018-03-28T18:13:10.662Z,7.40
2018-03-28T18:15:38.915Z,7.50
2018-03-28T18:18:07.166Z,7.50
2018-03-28T18:20:35.436Z,7.50
2018-03-28T18:23:04.518Z,7.50
2018-03-28T18:25:33.601Z,7.60
2018-03-28T18:28:02.627Z,7.60
2018-03-28T18:30:30.900Z,7.50
2018-03-28T18:32:59.188Z,7.60
2018-03-28T18:35:28.215Z,7.60
2018-03-28T18:37:56.482Z,7.60
2018-03-28T18:40:24.749Z,7.60
2018-03-28T18:42:53.024Z,7.70
2018-03-28T18:45:22.844Z,7.70
2018-03-28T18:47:51.096Z,7.70
2018-03-28T18:50:19.382Z,7.70
2018-03-28T18:52:47.665Z,7.70
2018-03-28T18:55:15.937Z,7.70
2018-03-28T18:57:44.210Z,7.70
2018-03-28T19:00:12.483Z,7.70
2018-03-28T19:02:40.752Z,7.60
2018-03-28T19:05:09.517Z,7.70
2018-03-28T19:07:38.623Z,7.70
2018-03-28T19:10:06.927Z,7.70
2018-03-28T19:12:35.216Z,7.80
2018-03-28T19:15:03.478Z,7.80
2018-03-28T19:17:31.740Z,7.80
2018-03-28T19:20:00.026Z,7.90
2018-03-28T19:22:28.302Z,7.90
2018-03-28T19:24:56.583Z,7.80
2018-03-28T19:27:24.857Z,7.90
2018-03-28T19:29:53.128Z,7.80
2018-03-28T19:32:21.403Z,7.90
2018-03-28T19:34:49.674Z,7.90
2018-03-28T19:37:17.982Z,7.80
2018-03-28T19:39:46.264Z,7.90
2018-03-28T19:42:14.534Z,7.90
2018-03-28T19:44:42.799Z,7.80
2018-03-28T19:47:11.976Z,7.80
2018-03-28T19:49:40.252Z,7.80
2018-03-28T19:52:08.530Z,7.80
2018-03-28T19:54:36.822Z,7.90
2018-03-28T19:57:05.089Z,7.90
2018-03-28T19:59:33.341Z,7.90
2018-03-28T20:02:01.630Z,7.80
2018-03-28T20:04:29.898Z,7.80
2018-03-28T20:06:58.166Z,7.90
2018-03-28T20:09:27.210Z,7.90
2018-03-28T20:11:55.471Z,7.90
2018-03-28T20:14:23.742Z,8.00
2018-03-28T20:16:52.041Z,8.00
2018-03-28T20:19:20.321Z,8.00
2018-03-28T20:21:48.583Z,8.00
2018-03-28T20:24:17.501Z,7.90
2018-03-28T20:26:45.764Z,7.90
2018-03-28T20:29:14.032Z,8.00
2018-03-28T20:31:42.314Z,8.00
2018-03-28T20:34:10.571Z,8.00
2018-03-28T20:36:38.866Z,8.00
2018-03-28T20:39:07.138Z,7.90
2018-03-28T20:41:35.389Z,8.00
2018-03-28T20:44:03.640Z,8.10
2018-03-28T20:46:32.677Z,8.00
2018-03-28T20:49:00.937Z,7.90
2018-03-28T20:51:29.195Z,7.90
2018-03-28T20:53:58.244Z,7.70
2018-03-28T20:56:26.517Z,7.70
2018-03-28T20:58:54.791Z,7.60
2018-03-28T21:01:23.072Z,7.40
2018-03-28T21:03:51.368Z,7.30
2018-03-28T21:06:19.646Z,7.30
2018-03-28T21:08:47.912Z,7.30
2018-03-28T21:11:17.065Z,7.10
2018-03-28T21:13:45.342Z,7.10
2018-03-28T21:16:13.603Z,7.00
2018-03-28T21:18:42.610Z,6.90
2018-03-28T21:21:10.881Z,6.90
2018-03-28T21:23:39.135Z,6.80
2018-03-28T21:26:08.159Z,6.70
2018-03-28T21:28:36.431Z,6.70
2018-03-28T21:31:04.733Z,6.60
2018-03-28T21:33:32.998Z,6.50
2018-03-28T21:36:01.266Z,6.50
2018-03-28T21:38:29.566Z,6.50
2018-03-28T21:40:57.825Z,6.50
2018-03-28T21:43:26.094Z,6.40
2018-03-28T21:45:54.365Z,6.40
2018-03-28T21:48:22.636Z,6.30
2018-03-28T21:50:50.936Z,6.30
2018-03-28T21:53:19.180Z,6.10
2018-03-28T21:55:47.436Z,6.10
2018-03-28T21:58:16.455Z,6.10
2018-03-28T22:00:44.741Z,6.10
2018-03-28T22:03:13.027Z,6.10
2018-03-28T22:05:42.825Z,6.10
2018-03-28T22:08:11.076Z,6.10
2018-03-28T22:10:39.351Z,6.10
2018-03-28T22:13:08.385Z,6.00
2018-03-28T22:15:36.652Z,6.00
2018-03-28T22:18:04.915Z,6.10
2018-03-28T22:20:33.186Z,6.00
2018-03-28T22:23:01.449Z,6.00
2018-03-28T22:25:30.478Z,5.90
2018-03-28T22:27:58.771Z,5.90
2018-03-28T22:30:27.042Z,5.80
2018-03-28T22:32:55.294Z,5.60
2018-03-28T22:35:23.592Z,5.60
2018-03-28T22:37:51.870Z,5.60
2018-03-28T22:40:20.117Z,5.60
2018-03-28T22:42:48.383Z,5.60
2018-03-28T22:45:17.409Z,5.50
2018-03-28T22:47:45.800Z,5.50
2018-03-28T22:50:14.096Z,5.50
2018-03-28T22:52:42.308Z,5.40
2018-03-28T22:55:10.575Z,5.40
2018-03-28T22:57:38.839Z,5.40
2018-03-28T23:00:07.876Z,5.40
2018-03-28T23:02:36.147Z,5.40
2018-03-28T23:05:04.477Z,5.40
2018-03-28T23:07:32.756Z,5.40
2018-03-28T23:10:01.104Z,5.30
2018-03-28T23:12:30.939Z,5.30
2018-03-28T23:15:00.716Z,5.20
2018-03-28T23:17:29.004Z,5.20
2018-03-28T23:19:57.276Z,5.20
2018-03-28T23:22:39.342Z,5.20
2018-03-28T23:25:07.613Z,5.10
2018-03-28T23:27:36.189Z,5.00
2018-03-28T23:30:05.247Z,4.70
2018-03-28T23:32:33.587Z,4.70
2018-03-28T23:35:01.854Z,4.70
2018-03-28T23:37:30.145Z,4.70
2018-03-28T23:39:58.440Z,4.60
2018-03-28T23:42:26.696Z,4.60
2018-03-28T23:44:55.032Z,4.60
2018-03-28T23:47:24.081Z,4.60
2018-03-28T23:49:52.335Z,4.60
2018-03-28T23:52:20.583Z,4.60
2018-03-28T23:54:49.622Z,4.60
2018-03-28T23:57:17.876Z,4.60
2018-03-28T23:59:46.181Z,4.60
